createdAt,value
2018-04-02T00:00:43.448Z,121.40
2018-04-02T00:03:11.005Z,140.18
2018-04-02T00:05:38.543Z,144.98
2018-04-02T00:08:06.100Z,145.52
2018-04-02T00:10:33.692Z,131.07
2018-04-02T00:13:01.259Z,121.05
2018-04-02T00:15:28.823Z,103.38
2018-04-02T00:17:56.458Z,103.62
2018-04-02T00:20:24.079Z,110.97
2018-04-02T00:22:52.387Z,96.05
2018-04-02T00:25:19.964Z,100.12
2018-04-02T00:27:47.569Z,107.32
2018-04-02T00:30:15.888Z,100.53
2018-04-02T00:32:43.471Z,113.55
2018-04-02T00:35:11.768Z,114.12
2018-04-02T00:37:39.303Z,113.57
2018-04-02T00:40:07.085Z,107.10
2018-04-02T00:42:34.633Z,113.10
2018-04-02T00:45:02.202Z,119.68
2018-04-02T00:47:29.783Z,119.80
2018-04-02T00:49:57.362Z,114.45
2018-04-02T00:52:25.697Z,118.62
2018-04-02T00:54:53.282Z,137.07
2018-04-02T00:57:20.827Z,134.12
2018-04-02T00:59:48.370Z,138.65
2018-04-02T01:02:15.936Z,156.93
2018-04-02T01:04:43.497Z,144.30
2018-04-02T01:07:11.061Z,151.93
2018-04-02T01:09:38.636Z,162.30
2018-04-02T01:12:06.191Z,162.88
2018-04-02T01:14:33.761Z,162.23
2018-04-02T01:17:01.313Z,165.07
2018-04-02T01:19:28.867Z,159.50
2018-04-02T01:21:56.426Z,169.35
2018-04-02T01:24:24.005Z,160.73
2018-04-02T01:26:51.575Z,167.87
2018-04-02T01:29:19.902Z,176.87
2018-04-02T01:31:47.486Z,163.85
2018-04-02T01:34:15.037Z,157.60
2018-04-02T01:36:42.591Z,154.23
2018-04-02T01:39:10.175Z,173.30
2018-04-02T01:41:37.869Z,167.00
2018-04-02T01:44:05.411Z,163.82
2018-04-02T01:46:33.774Z,168.77
2018-04-02T01:49:01.322Z,164.52
2018-04-02T01:51:28.868Z,166.20
2018-04-02T01:53:56.434Z,170.00
2018-04-02T01:56:23.993Z,167.20
2018-04-02T01:58:51.547Z,174.45
2018-04-02T02:01:19.897Z,176.50
2018-04-02T02:03:47.429Z,173.00
2018-04-02T02:06:15.753Z,162.90
2018-04-02T02:08:43.314Z,188.62
2018-04-02T02:11:10.862Z,174.68
2018-04-02T02:13:38.423Z,177.98
2018-04-02T02:16:06.899Z,177.02
2018-04-02T02:18:34.466Z,185.55
2018-04-02T02:21:02.026Z,175.57
2018-04-02T02:23:29.622Z,173.48
2018-04-02T02:25:57.325Z,180.25
2018-04-02T02:28:24.858Z,185.20
2018-04-02T02:30:53.181Z,179.73
2018-04-02T02:33:20.738Z,187.10
2018-04-02T02:35:48.298Z,191.50
2018-04-02T02:38:15.889Z,179.18
2018-04-02T02:40:43.434Z,187.57
2018-04-02T02:43:11.061Z,177.52
2018-04-02T02:45:38.737Z,200.62
2018-04-02T02:48:06.331Z,203.80
2018-04-02T02:50:34.060Z,199.90
2018-04-02T02:53:01.650Z,195.43
2018-04-02T02:55:29.200Z,186.20
2018-04-02T02:57:56.758Z,195.07
2018-04-02T03:00:24.327Z,186.75
2018-04-02T03:02:52.667Z,196.07
2018-04-02T03:05:20.214Z,197.80
2018-04-02T03:07:47.831Z,182.12
2018-04-02T03:10:15.398Z,191.90
2018-04-02T03:12:42.942Z,175.27
2018-04-02T03:15:10.525Z,186.98
2018-04-02T03:17:38.835Z,177.35
2018-04-02T03:20:06.400Z,186.55
2018-04-02T03:22:34.065Z,175.02
2018-04-02T03:25:01.629Z,176.85
2018-04-02T03:27:29.188Z,183.60
2018-04-02T03:29:56.773Z,173.52
2018-04-02T03:32:24.309Z,172.18
2018-04-02T03:34:51.856Z,169.00
2018-04-02T03:37:19.426Z,169.27
2018-04-02T03:39:46.989Z,162.30
2018-04-02T03:42:14.557Z,168.07
2018-04-02T03:44:42.890Z,162.52
2018-04-02T03:47:11.204Z,160.70
2018-04-02T03:49:38.880Z,164.13
2018-04-02T03:52:06.448Z,168.80
2018-04-02T03:54:34.797Z,157.37
2018-04-02T03:57:02.351Z,157.80
2018-04-02T03:59:29.928Z,166.00
2018-04-02T04:01:57.455Z,157.77
2018-04-02T04:04:25.017Z,159.00
2018-04-02T04:06:52.579Z,173.87
2018-04-02T04:09:20.129Z,158.77
2018-04-02T04:11:47.672Z,145.73
2018-04-02T04:14:16.072Z,201.05
2018-04-02T04:16:43.688Z,167.07
2018-04-02T04:19:11.239Z,166.15
2018-04-02T04:21:38.808Z,173.43
2018-04-02T04:24:06.411Z,172.90
2018-04-02T04:26:34.834Z,190.93
2018-04-02T04:29:02.401Z,224.32
2018-04-02T04:31:29.943Z,197.50
2018-04-02T04:33:57.493Z,185.43
2018-04-02T04:36:25.042Z,174.82
2018-04-02T04:38:52.569Z,181.75
2018-04-02T04:41:20.873Z,167.35
2018-04-02T04:43:49.304Z,158.02
2018-04-02T04:46:16.847Z,170.05
2018-04-02T04:48:44.498Z,166.25
2018-04-02T04:51:12.078Z,161.55
2018-04-02T04:53:39.650Z,155.65
2018-04-02T04:56:07.419Z,162.55
2018-04-02T04:58:34.979Z,171.00
2018-04-02T05:01:02.539Z,154.35
2018-04-02T05:03:30.097Z,139.02
2018-04-02T05:05:57.667Z,159.15
2018-04-02T05:08:25.225Z,147.93
2018-04-02T05:10:52.782Z,124.53
2018-04-02T05:13:20.349Z,145.55
2018-04-02T05:15:47.889Z,137.70
2018-04-02T05:18:16.306Z,146.73
2018-04-02T05:20:43.857Z,127.00
2018-04-02T05:23:11.398Z,142.05
2018-04-02T05:25:38.958Z,139.27
2018-04-02T05:28:06.567Z,131.45
2018-04-02T05:30:34.139Z,137.85
2018-04-02T05:33:01.681Z,122.93
2018-04-02T05:35:29.262Z,137.73
2018-04-02T05:37:56.803Z,130.15
2018-04-02T05:40:25.116Z,134.18
2018-04-02T05:42:52.702Z,131.12
2018-04-02T05:45:20.314Z,127.40
2018-04-02T05:47:47.836Z,147.75
2018-04-02T05:50:15.413Z,133.45
2018-04-02T05:52:42.952Z,118.95
2018-04-02T05:55:10.505Z,132.00
2018-04-02T05:57:38.193Z,155.82
2018-04-02T06:00:05.782Z,146.65
2018-04-02T06:02:33.309Z,131.00
2018-04-02T06:05:00.915Z,152.85
2018-04-02T06:07:28.464Z,157.82
2018-04-02T06:09:55.993Z,153.90
2018-04-02T06:12:23.608Z,156.77
2018-04-02T06:14:51.184Z,159.48
2018-04-02T06:17:18.759Z,157.43
2018-04-02T06:19:46.439Z,149.43
2018-04-02T06:22:14.759Z,160.65
2018-04-02T06:24:42.301Z,160.50
2018-04-02T06:27:10.649Z,154.20
2018-04-02T06:29:38.351Z,160.35
2018-04-02T06:32:05.899Z,151.90
2018-04-02T06:34:33.483Z,152.95
2018-04-02T06:37:01.045Z,142.37
2018-04-02T06:39:28.600Z,142.40
2018-04-02T06:41:56.167Z,183.27
2018-04-02T06:44:23.698Z,147.48
2018-04-02T06:46:51.288Z,142.35
2018-04-02T06:49:18.883Z,149.82
2018-04-02T06:51:46.488Z,137.45
2018-04-02T06:54:14.013Z,141.35
2018-04-02T06:56:42.355Z,137.80
2018-04-02T06:59:09.917Z,141.82
2018-04-02T07:01:37.673Z,140.07
2018-04-02T07:04:06.021Z,131.77
2018-04-02T07:06:33.609Z,137.88
2018-04-02T07:09:01.161Z,137.15
2018-04-02T07:11:28.738Z,130.45
2018-04-02T07:13:56.283Z,132.15
2018-04-02T07:16:23.819Z,137.00
2018-04-02T07:18:51.392Z,141.55
2018-04-02T07:21:18.955Z,129.02
2018-04-02T07:23:46.531Z,127.85
2018-04-02T07:26:14.103Z,119.70
2018-04-02T07:28:41.684Z,131.80
2018-04-02T07:31:09.995Z,113.55
2018-04-02T07:33:37.638Z,121.07
2018-04-02T07:36:05.176Z,132.63
2018-04-02T07:38:32.757Z,118.40
2018-04-02T07:41:00.353Z,109.00
2018-04-02T07:43:27.904Z,114.68
2018-04-02T07:45:55.470Z,106.65
2018-04-02T07:48:23.114Z,112.95
2018-04-02T07:50:50.649Z,96.03
2018-04-02T07:53:19.098Z,100.38
2018-04-02T07:55:47.442Z,95.90
2018-04-02T07:58:15.051Z,87.97
2018-04-02T08:00:43.363Z,97.90
2018-04-02T08:03:10.935Z,95.33
2018-04-02T08:05:38.579Z,87.27
2018-04-02T08:08:06.132Z,86.73
2018-04-02T08:10:34.471Z,88.60
2018-04-02T08:13:02.019Z,80.33
2018-04-02T08:15:29.549Z,80.10
2018-04-02T08:17:57.882Z,73.70
2018-04-02T08:20:25.413Z,71.40
2018-04-02T08:22:53.248Z,78.33
2018-04-02T08:25:20.903Z,83.40
2018-04-02T08:27:49.243Z,75.67
2018-04-02T08:30:16.936Z,77.40
2018-04-02T08:32:44.510Z,76.27
2018-04-02T08:35:12.052Z,77.00
2018-04-02T08:37:39.593Z,64.30
2018-04-02T08:40:07.176Z,67.60
2018-04-02T08:42:34.701Z,80.10
2018-04-02T08:45:02.222Z,66.60
2018-04-02T08:47:30.566Z,77.87
2018-04-02T08:49:58.115Z,67.17
2018-04-02T08:52:25.642Z,72.20
2018-04-02T08:54:53.204Z,74.27
2018-04-02T08:57:20.740Z,63.13
2018-04-02T08:59:49.075Z,61.63
2018-04-02T09:02:16.655Z,60.97
2018-04-02T09:04:44.196Z,60.70
2018-04-02T09:07:11.781Z,60.37
2018-04-02T09:09:40.117Z,64.83
2018-04-02T09:12:07.665Z,61.10
2018-04-02T09:14:35.192Z,55.07
2018-04-02T09:17:03.537Z,51.83
2018-04-02T09:19:31.075Z,46.33
2018-04-02T09:21:58.641Z,50.27
2018-04-02T09:24:26.225Z,43.20
2018-04-02T09:26:53.767Z,41.00
2018-04-02T09:29:21.312Z,45.03
2018-04-02T09:31:48.857Z,40.60
2018-04-02T09:34:16.453Z,34.80
2018-04-02T09:36:43.982Z,41.33
2018-04-02T09:39:11.565Z,35.57
2018-04-02T09:41:39.132Z,37.27
2018-04-02T09:44:06.684Z,41.23
2018-04-02T09:46:35.028Z,35.27
2018-04-02T09:49:02.851Z,33.37
2018-04-02T09:51:31.303Z,36.23
2018-04-02T09:53:58.913Z,28.10
2018-04-02T09:56:26.466Z,29.67
2018-04-02T09:58:54.774Z,32.60
2018-04-02T10:01:22.344Z,29.70
2018-04-02T10:03:57.866Z,32.13
2018-04-02T10:06:25.446Z,37.83
2018-04-02T10:08:52.982Z,33.50
2018-04-02T10:11:20.524Z,33.80
2018-04-02T10:13:48.863Z,37.73
2018-04-02T10:16:16.408Z,32.50
2018-04-02T10:18:43.966Z,35.60
2018-04-02T10:21:11.544Z,36.60
2018-04-02T10:23:39.073Z,31.53
2018-04-02T10:26:06.625Z,28.87
2018-04-02T10:28:34.202Z,37.20
2018-04-02T10:31:01.775Z,34.67
2018-04-02T10:33:29.289Z,34.37
2018-04-02T10:35:56.851Z,36.97
2018-04-02T10:38:24.399Z,31.30
2018-04-02T10:40:52.703Z,34.87
2018-04-02T10:43:20.324Z,30.33
2018-04-02T10:45:47.855Z,33.90
2018-04-02T10:48:15.409Z,34.97
2018-04-02T10:50:42.978Z,27.83
2018-04-02T10:53:10.524Z,27.60
2018-04-02T10:55:38.068Z,25.50
2018-04-02T10:58:05.631Z,24.53
2018-04-02T11:00:33.173Z,25.70
2018-04-02T11:03:00.711Z,31.37
2018-04-02T11:05:28.321Z,24.53
2018-04-02T11:07:56.185Z,27.63
2018-04-02T11:10:24.258Z,25.27
2018-04-02T11:12:51.863Z,27.37
2018-04-02T11:15:20.159Z,21.77
2018-04-02T11:17:47.701Z,23.23
2018-04-02T11:20:16.025Z,23.60
2018-04-02T11:22:43.593Z,24.27
2018-04-02T11:25:11.218Z,17.43
2018-04-02T11:27:38.779Z,63.80
2018-04-02T11:30:06.313Z,91.07
2018-04-02T11:32:34.612Z,25.07
2018-04-02T11:35:02.173Z,19.15
2018-04-02T11:37:29.719Z,24.50
2018-04-02T11:39:57.266Z,23.13
2018-04-02T11:42:25.589Z,26.77
2018-04-02T11:44:53.166Z,22.73
2018-04-02T11:47:20.765Z,27.63
2018-04-02T11:49:49.117Z,27.00
2018-04-02T11:52:16.667Z,27.03
2018-04-02T11:54:44.211Z,26.13
2018-04-02T11:57:11.848Z,24.80
2018-04-02T11:59:39.347Z,25.93
2018-04-02T12:02:06.890Z,19.73
2018-04-02T12:04:34.453Z,20.60
2018-04-02T12:07:02.012Z,27.17
2018-04-02T12:09:29.548Z,23.60
2018-04-02T12:11:57.227Z,19.50
2018-04-02T12:14:24.770Z,22.40
2018-04-02T12:16:52.311Z,21.50
2018-04-02T12:19:19.885Z,15.23
2018-04-02T12:21:47.429Z,19.17
2018-04-02T12:24:15.741Z,20.30
2018-04-02T12:26:43.345Z,18.50
2018-04-02T12:29:10.877Z,23.97
2018-04-02T12:31:38.423Z,20.60
2018-04-02T12:34:05.977Z,21.13
2018-04-02T12:36:33.534Z,21.40
2018-04-02T12:39:01.081Z,29.77
2018-04-02T12:41:28.652Z,28.37
2018-04-02T12:43:56.195Z,16.90
2018-04-02T12:46:23.750Z,20.67
2018-04-02T12:48:51.328Z,21.87
2018-04-02T12:51:18.862Z,25.70
2018-04-02T12:53:47.167Z,22.27
2018-04-02T12:56:14.749Z,19.83
2018-04-02T12:58:42.299Z,21.47
2018-04-02T13:01:10.610Z,18.70
2018-04-02T13:03:38.939Z,23.20
2018-04-02T13:06:06.476Z,16.53
2018-04-02T13:08:34.002Z,17.77
2018-04-02T13:11:01.589Z,16.50
2018-04-02T13:13:29.153Z,17.83
2018-04-02T13:15:56.709Z,20.10
2018-04-02T13:18:24.274Z,23.70
2018-04-02T13:20:51.825Z,18.80
2018-04-02T13:23:19.387Z,19.70
2018-04-02T13:25:46.963Z,22.23
2018-04-02T13:28:14.579Z,14.47
2018-04-02T13:30:42.113Z,13.17
2018-04-02T13:33:09.707Z,21.80
2018-04-02T13:35:37.242Z,11.47
2018-04-02T13:38:04.785Z,15.67
2018-04-02T13:40:32.310Z,16.53
2018-04-02T13:42:59.886Z,15.23
2018-04-02T13:45:27.431Z,9.83
2018-04-02T13:47:55.002Z,11.73
2018-04-02T13:50:22.563Z,13.53
2018-04-02T13:52:50.135Z,14.30
2018-04-02T13:55:17.711Z,11.50
2018-04-02T13:57:45.294Z,13.43
2018-04-02T14:00:12.805Z,11.50
2018-04-02T14:02:40.559Z,62.97
2018-04-02T14:05:08.115Z,11.70
2018-04-02T14:07:35.717Z,8.75
2018-04-02T14:10:03.256Z,13.63
2018-04-02T14:12:30.773Z,8.97
2018-04-02T14:14:59.104Z,9.13
2018-04-02T14:17:26.686Z,7.57
2018-04-02T14:19:54.213Z,10.17
2018-04-02T14:22:21.761Z,8.23
2018-04-02T14:24:49.295Z,8.87
2018-04-02T14:27:16.870Z,9.27
2018-04-02T14:29:44.413Z,9.23
2018-04-02T14:32:11.945Z,10.63
2018-04-02T14:34:39.499Z,8.73
2018-04-02T14:37:07.032Z,11.63
2018-04-02T14:39:34.591Z,8.80
2018-04-02T14:42:02.137Z,6.57
2018-04-02T14:44:29.660Z,10.00
2018-04-02T14:46:57.979Z,9.53
2018-04-02T14:49:25.515Z,11.20
2018-04-02T14:51:53.033Z,5.20
2018-04-02T14:54:20.591Z,5.30
2018-04-02T14:56:48.133Z,7.40
2018-04-02T14:59:15.681Z,5.37
2018-04-02T15:01:43.229Z,8.57
2018-04-02T15:04:10.764Z,7.40
2018-04-02T15:06:38.324Z,7.67
2018-04-02T15:09:05.868Z,7.40
2018-04-02T15:11:34.172Z,10.10
2018-04-02T15:14:01.728Z,5.50
2018-04-02T15:16:29.260Z,5.93
2018-04-02T15:18:57.566Z,7.93
2018-04-02T15:21:25.098Z,7.60
2018-04-02T15:23:53.402Z,5.03
2018-04-02T15:26:20.959Z,5.70
2018-04-02T15:28:48.495Z,5.90
2018-04-02T15:31:16.802Z,8.80
2018-04-02T15:33:44.354Z,5.90
2018-04-02T15:36:11.916Z,7.30
2018-04-02T15:38:39.468Z,7.77
2018-04-02T15:41:07.024Z,8.33
2018-04-02T15:43:34.576Z,6.03
2018-04-02T15:46:02.130Z,12.53
2018-04-02T15:48:29.667Z,10.03
2018-04-02T15:50:57.288Z,21.03
2018-04-02T15:53:24.951Z,8.43
2018-04-02T15:55:52.496Z,24.90
2018-04-02T15:58:20.047Z,14.73
2018-04-02T16:00:47.591Z,5.60
2018-04-02T16:03:15.147Z,13.77
2018-04-02T16:05:42.675Z,13.67
2018-04-02T16:08:10.227Z,6.63
2018-04-02T16:10:37.761Z,10.00
2018-04-02T16:13:05.334Z,11.57
2018-04-02T16:15:32.861Z,9.00
2018-04-02T16:18:00.396Z,5.77
2018-04-02T16:20:28.733Z,8.83
2018-04-02T16:22:56.346Z,6.33
2018-04-02T16:25:23.889Z,8.43
2018-04-02T16:27:52.213Z,4.40
2018-04-02T16:30:19.791Z,7.97
2018-04-02T16:32:47.362Z,7.00
2018-04-02T16:35:14.917Z,5.07
2018-04-02T16:37:42.457Z,5.43
2018-04-02T16:40:09.989Z,9.30
2018-04-02T16:42:37.559Z,5.20
2018-04-02T16:45:05.118Z,5.17
2018-04-02T16:47:32.653Z,6.50
2018-04-02T16:50:00.195Z,15.60
2018-04-02T16:52:28.530Z,5.53
2018-04-02T16:54:56.063Z,8.30
2018-04-02T16:57:23.621Z,5.90
2018-04-02T16:59:51.193Z,8.17
2018-04-02T17:02:18.727Z,6.17
2018-04-02T17:04:46.302Z,9.27
2018-04-02T17:07:13.835Z,11.40
2018-04-02T17:09:42.139Z,13.23
2018-04-02T17:12:09.699Z,13.67
2018-04-02T17:14:37.240Z,20.37
2018-04-02T17:17:04.820Z,11.63
2018-04-02T17:19:32.355Z,10.80
2018-04-02T17:21:59.895Z,11.70
2018-04-02T17:24:28.245Z,10.13
2018-04-02T17:26:55.783Z,7.97
2018-04-02T17:29:23.302Z,8.50
2018-04-02T17:31:51.658Z,7.70
2018-04-02T17:34:19.994Z,11.37
2018-04-02T17:36:47.520Z,9.47
2018-04-02T17:39:15.873Z,14.40
2018-04-02T17:41:43.402Z,11.07
2018-04-02T17:44:10.949Z,8.43
2018-04-02T17:46:38.507Z,7.97
2018-04-02T17:49:06.046Z,6.37
2018-04-02T17:51:33.591Z,11.40
2018-04-02T17:54:01.896Z,8.47
2018-04-02T17:56:29.414Z,9.10
2018-04-02T17:58:57.751Z,7.23
2018-04-02T18:01:25.285Z,7.10
2018-04-02T18:03:52.814Z,12.90
2018-04-02T18:06:21.165Z,13.03
2018-04-02T18:08:48.709Z,14.93
2018-04-02T18:11:16.249Z,9.27
2018-04-02T18:13:43.801Z,8.70
2018-04-02T18:16:11.346Z,9.47
2018-04-02T18:18:38.917Z,10.37
2018-04-02T18:21:06.473Z,11.90
2018-04-02T18:23:34.011Z,7.07
2018-04-02T18:26:02.322Z,10.30
2018-04-02T18:28:29.883Z,11.50
2018-04-02T18:30:57.453Z,15.77
2018-04-02T18:33:24.988Z,14.60
2018-04-02T18:35:52.567Z,18.23
2018-04-02T18:38:20.152Z,8.43
2018-04-02T18:40:47.690Z,11.33
2018-04-02T18:43:15.244Z,9.37
2018-04-02T18:45:42.796Z,12.87
2018-04-02T18:48:10.350Z,11.30
2018-04-02T18:50:37.931Z,10.65
2018-04-02T18:53:05.475Z,13.57
2018-04-02T18:55:33.033Z,11.13
2018-04-02T18:58:00.592Z,6.97
2018-04-02T19:00:28.121Z,7.67
2018-04-02T19:02:56.479Z,9.23
2018-04-02T19:05:24.030Z,6.20
2018-04-02T19:07:51.595Z,7.20
2018-04-02T19:10:20.019Z,7.33
2018-04-02T19:12:47.589Z,4.33
2018-04-02T19:15:15.221Z,5.10
2018-04-02T19:17:42.805Z,5.43
2018-04-02T19:20:11.122Z,6.10
2018-04-02T19:22:38.672Z,7.80
2018-04-02T19:25:06.253Z,5.00
2018-04-02T19:27:34.274Z,6.27
2018-04-02T19:30:01.864Z,4.43
2018-04-02T19:32:29.412Z,4.70
2018-04-02T19:34:56.977Z,4.40
2018-04-02T19:37:24.517Z,5.93
2018-04-02T19:39:52.196Z,8.40
2018-04-02T19:42:19.721Z,3.30
2018-04-02T19:44:47.289Z,3.80
2018-04-02T19:47:15.266Z,4.87
2018-04-02T19:49:42.810Z,7.90
2018-04-02T19:52:10.462Z,4.30
2018-04-02T19:54:38.028Z,5.53
2018-04-02T19:57:05.553Z,7.50
2018-04-02T19:59:34.644Z,9.17
2018-04-02T20:02:02.204Z,5.47
2018-04-02T20:04:30.551Z,4.50
2018-04-02T20:06:58.113Z,6.78
2018-04-02T20:09:26.500Z,4.60
2018-04-02T20:11:54.968Z,7.10
2018-04-02T20:14:22.512Z,4.23
2018-04-02T20:16:50.118Z,4.23
2018-04-02T20:19:17.708Z,7.00
2018-04-02T20:21:45.567Z,5.87
2018-04-02T20:24:14.372Z,5.17
2018-04-02T20:26:41.986Z,7.40
2018-04-02T20:29:09.546Z,7.57
2018-04-02T20:31:37.155Z,6.83
2018-04-02T20:34:04.700Z,5.67
2018-04-02T20:36:32.276Z,10.80
2018-04-02T20:38:59.807Z,9.63
2018-04-02T20:41:28.126Z,6.20
2018-04-02T20:43:55.674Z,5.40
2018-04-02T20:46:23.216Z,4.80
2018-04-02T20:48:50.799Z,6.33
2018-04-02T20:51:18.419Z,6.23
2018-04-02T20:53:45.964Z,3.33
2018-04-02T20:56:13.598Z,2.80
2018-04-02T20:58:42.183Z,6.77
2018-04-02T21:01:09.723Z,4.43
2018-04-02T21:03:37.294Z,4.90
2018-04-02T21:06:04.831Z,5.60
2018-04-02T21:08:32.371Z,6.20
2018-04-02T21:10:59.939Z,4.30
2018-04-02T21:13:27.477Z,4.37
2018-04-02T21:15:55.824Z,8.30
2018-04-02T21:18:24.408Z,4.63
2018-04-02T21:20:51.961Z,2.77
2018-04-02T21:23:19.500Z,8.43
2018-04-02T21:25:47.033Z,3.77
2018-04-02T21:28:14.574Z,2.60
2018-04-02T21:30:42.887Z,10.43
2018-04-02T21:33:10.470Z,2.30
2018-04-02T21:35:38.004Z,2.63
2018-04-02T21:38:05.545Z,3.77
2018-04-02T21:40:33.593Z,3.77
2018-04-02T21:43:01.625Z,3.22
2018-04-02T21:45:29.169Z,3.90
2018-04-02T21:47:56.758Z,5.73
2018-04-02T21:50:24.369Z,2.53
2018-04-02T21:52:51.906Z,4.20
2018-04-02T21:55:20.287Z,2.03
2018-04-02T21:57:49.474Z,3.97
2018-04-02T22:00:17.428Z,3.03
2018-04-02T22:02:45.762Z,3.80
2018-04-02T22:05:13.338Z,2.90
2018-04-02T22:07:40.913Z,2.70
2018-04-02T22:10:08.462Z,5.10
2018-04-02T22:12:36.030Z,2.80
2018-04-02T22:15:03.585Z,2.73
2018-04-02T22:17:31.143Z,4.97
2018-04-02T22:19:58.717Z,10.10
2018-04-02T22:22:26.249Z,3.83
2018-04-02T22:24:53.821Z,2.47
2018-04-02T22:27:21.349Z,3.03
2018-04-02T22:29:48.887Z,2.10
2018-04-02T22:32:17.317Z,2.10
2018-04-02T22:34:44.849Z,2.60
2018-04-02T22:37:12.405Z,3.30
2018-04-02T22:39:39.963Z,2.83
2018-04-02T22:42:07.500Z,2.10
2018-04-02T22:44:35.089Z,3.43
2018-04-02T22:47:02.631Z,8.83
2018-04-02T22:49:30.844Z,4.70
2018-04-02T22:51:59.197Z,2.70
2018-04-02T22:54:26.736Z,3.47
2018-04-02T22:56:54.316Z,3.97
2018-04-02T22:59:21.888Z,3.70
2018-04-02T23:01:49.413Z,2.07
2018-04-02T23:04:16.937Z,2.10
2018-04-02T23:06:44.521Z,5.30
2018-04-02T23:09:12.820Z,2.03
2018-04-02T23:11:40.351Z,2.40
2018-04-02T23:14:08.699Z,6.67
2018-04-02T23:16:36.249Z,3.73
2018-04-02T23:19:03.801Z,4.00
2018-04-02T23:21:31.381Z,6.40
2018-04-02T23:23:58.922Z,2.50
2018-04-02T23:26:26.471Z,3.67
2018-04-02T23:28:54.047Z,3.37
2018-04-02T23:31:21.591Z,2.57
2018-04-02T23:33:49.148Z,3.43
2018-04-02T23:36:16.731Z,2.40
2018-04-02T23:38:44.264Z,5.20
2018-04-02T23:41:11.842Z,4.03
2018-04-02T23:43:39.388Z,3.63
2018-04-02T23:46:06.954Z,5.80
2018-04-02T23:48:34.771Z,4.40
2018-04-02T23:51:03.079Z,2.43
2018-04-02T23:53:30.639Z,6.20
2018-04-02T23:55:58.206Z,4.03
2018-04-02T23:58:25.772Z,4.10
